createdAt,value
2022-09-27T00:02:22.016Z,94875.52
2022-09-27T00:06:10.968Z,94872.36
2022-09-27T00:09:59.947Z,94868.32
2022-09-27T00:13:48.555Z,94858.12
2022-09-27T00:17:37.513Z,94856.06
2022-09-27T00:21:26.424Z,94853.74
2022-09-27T00:25:15.401Z,94858.70
2022-09-27T00:28:11.613Z,94858.25
2022-09-27T00:31:40.275Z,94857.30
2022-09-27T00:34:53.027Z,94855.30
2022-09-27T00:37:50.292Z,94853.16
2022-09-27T00:40:59.398Z,94847.98
2022-09-27T00:44:04.901Z,94840.09
2022-09-27T00:47:36.878Z,94832.77
2022-09-27T00:51:28.903Z,94822.19
2022-09-27T00:55:17.892Z,94817.64
2022-09-27T00:59:06.802Z,94819.09
2022-09-27T01:02:55.472Z,94820.34
2022-09-27T01:06:44.577Z,94809.52
2022-09-27T01:10:33.707Z,94804.30
2022-09-27T01:14:24.630Z,94797.08
2022-09-27T01:18:24.343Z,94788.37
2022-09-27T01:22:18.874Z,94785.27
2022-09-27T01:26:09.320Z,94781.88
2022-09-27T01:30:08.924Z,94780.15
2022-09-27T01:34:04.050Z,94778.84
2022-09-27T01:37:58.038Z,94778.85
2022-09-27T01:41:56.277Z,94771.77
2022-09-27T01:45:48.489Z,94753.33
2022-09-27T01:49:43.563Z,94746.35
2022-09-27T01:53:44.471Z,94750.09
2022-09-27T01:57:39.267Z,94746.38
2022-09-27T02:05:55.392Z,94728.50
2022-09-27T02:09:44.422Z,94721.39
2022-09-27T02:13:33.264Z,94711.63
2022-09-27T02:17:31.399Z,94702.27
2022-09-27T02:21:26.501Z,94699.87
2022-09-27T02:25:27.245Z,94708.48
2022-09-27T02:29:01.912Z,94714.26
2022-09-27T02:32:50.783Z,94715.34
2022-09-27T02:36:39.673Z,94714.69
2022-09-27T02:40:28.433Z,94716.88
2022-09-27T02:44:17.296Z,94715.36
2022-09-27T02:47:51.452Z,94720.27
2022-09-27T02:51:18.989Z,94716.32
2022-09-27T02:54:53.332Z,94712.77
2022-09-27T02:58:50.460Z,94714.50
2022-09-27T03:01:59.783Z,94719.60
2022-09-27T03:05:48.529Z,94717.14
2022-09-27T03:09:37.363Z,94713.64
2022-09-27T03:13:26.287Z,94702.11
2022-09-27T03:17:15.259Z,94695.95
2022-09-27T03:20:45.533Z,94700.64
2022-09-27T03:24:34.273Z,94708.38
2022-09-27T03:28:24.337Z,94713.34
2022-09-27T03:32:13.328Z,94707.10
2022-09-27T03:36:20.373Z,94708.69
2022-09-27T03:40:09.370Z,94713.52
2022-09-27T03:43:58.381Z,94716.44
2022-09-27T03:47:26.445Z,94708.89
2022-09-27T03:51:14.909Z,94711.10
2022-09-27T03:54:47.699Z,94709.77
2022-09-27T03:58:36.362Z,94702.59
2022-09-27T04:02:25.539Z,94702.52
2022-09-27T04:05:16.792Z,94693.61
2022-09-27T04:08:48.382Z,94689.29
2022-09-27T04:12:37.014Z,94683.60
2022-09-27T04:16:26.199Z,94681.61
2022-09-27T04:20:15.346Z,94678.19
2022-09-27T04:24:04.321Z,94682.74
2022-09-27T04:27:53.274Z,94685.15
2022-09-27T04:41:09.115Z,94698.08
2022-09-27T04:44:57.686Z,94697.66
2022-09-27T04:48:46.867Z,94698.71
2022-09-27T04:52:35.441Z,94697.39
2022-09-27T04:56:26.371Z,94705.98
2022-09-27T05:00:14.969Z,94706.86
2022-09-27T05:04:03.619Z,94699.86
2022-09-27T05:07:51.899Z,94708.86
2022-09-27T05:11:39.983Z,94713.09
2022-09-27T05:15:16.735Z,94713.52
2022-09-27T05:18:31.163Z,94711.79
2022-09-27T05:22:17.592Z,94709.16
2022-09-27T05:25:06.697Z,94708.60
2022-09-27T05:27:36.090Z,94707.67
2022-09-27T05:30:08.400Z,94706.84
2022-09-27T05:32:53.275Z,94705.84
2022-09-27T05:35:27.177Z,94700.34
2022-09-27T05:37:58.124Z,94703.95
2022-09-27T05:40:40.836Z,94705.38
2022-09-27T05:43:11.196Z,94708.45
2022-09-27T05:45:39.795Z,94707.80
2022-09-27T05:48:09.127Z,94705.96
2022-09-27T05:50:45.764Z,94704.11
2022-09-27T05:53:14.230Z,94704.77
2022-09-27T05:55:44.152Z,94708.38
2022-09-27T05:58:16.257Z,94708.38
2022-09-27T06:00:56.352Z,94702.34
2022-09-27T06:03:38.122Z,94701.41
2022-09-27T06:06:10.892Z,94703.02
2022-09-27T06:08:47.231Z,94705.86
2022-09-27T06:11:18.562Z,94706.05
2022-09-27T06:13:47.543Z,94707.86
2022-09-27T06:16:15.852Z,94711.10
2022-09-27T06:18:53.948Z,94717.84
2022-09-27T06:21:22.809Z,94719.61
2022-09-27T06:23:59.355Z,94720.92
2022-09-27T06:26:31.987Z,94720.42
2022-09-27T06:29:20.958Z,94721.46
2022-09-27T06:31:58.097Z,94724.95
2022-09-27T06:34:42.445Z,94726.16
2022-09-27T06:37:10.524Z,94728.65
2022-09-27T06:39:38.636Z,94736.77
2022-09-27T06:42:33.102Z,94742.45
2022-09-27T06:45:21.471Z,94736.29
2022-09-27T06:48:10.483Z,94732.84
2022-09-27T06:50:49.295Z,94732.52
2022-09-27T06:53:17.774Z,94734.94
2022-09-27T06:55:45.965Z,94735.11
2022-09-27T06:58:32.599Z,94738.89
2022-09-27T07:01:28.197Z,94742.33
2022-09-27T07:04:17.468Z,94744.64
2022-09-27T07:07:03.869Z,94749.70
2022-09-27T07:09:39.329Z,94750.43
2022-09-27T07:12:07.740Z,94754.31
2022-09-27T07:14:36.038Z,94757.09
2022-09-27T07:17:05.423Z,94757.89
2022-09-27T07:19:45.165Z,94759.27
2022-09-27T07:22:14.346Z,94755.94
2022-09-27T07:24:44.793Z,94752.61
2022-09-27T07:27:14.011Z,94743.64
2022-09-27T07:29:42.509Z,94742.33
2022-09-27T07:32:30.517Z,94737.94
2022-09-27T07:34:58.510Z,94738.08
2022-09-27T07:37:26.661Z,94738.23
2022-09-27T07:39:54.565Z,94736.17
2022-09-27T07:42:23.148Z,94730.54
2022-09-27T07:44:53.183Z,94728.06
2022-09-27T07:47:31.099Z,94727.81
2022-09-27T07:50:07.688Z,94727.41
2022-09-27T07:52:54.803Z,94728.02
2022-09-27T07:55:37.222Z,94730.77
2022-09-27T07:58:20.068Z,94730.45
2022-09-27T08:00:48.350Z,94726.91
2022-09-27T08:03:17.893Z,94727.73
2022-09-27T08:05:48.011Z,94727.38
2022-09-27T08:08:17.224Z,94724.50
2022-09-27T08:10:46.747Z,94721.95
2022-09-27T08:13:20.319Z,94721.94
2022-09-27T08:15:50.948Z,94723.15
2022-09-27T08:18:21.998Z,94720.73
2022-09-27T08:20:57.955Z,94718.70
2022-09-27T08:23:59.504Z,94711.54
2022-09-27T08:26:37.033Z,94708.05
2022-09-27T08:29:13.041Z,94706.55
2022-09-27T08:31:51.790Z,94706.80
2022-09-27T08:34:22.023Z,94700.24
2022-09-27T08:36:49.952Z,94702.50
2022-09-27T08:39:18.019Z,94705.07
2022-09-27T08:41:57.337Z,94707.27
2022-09-27T08:44:43.522Z,94709.35
2022-09-27T08:47:51.904Z,94709.04
2022-09-27T08:50:30.089Z,94714.55
2022-09-27T08:53:18.065Z,94717.34
2022-09-27T08:55:50.782Z,94722.39
2022-09-27T08:58:30.083Z,94720.92
2022-09-27T09:01:04.985Z,94723.40
2022-09-27T09:03:44.103Z,94718.11
2022-09-27T09:06:30.078Z,94712.66
2022-09-27T09:09:30.964Z,94710.46
2022-09-27T09:12:50.234Z,94707.55
2022-09-27T09:15:57.150Z,94702.89
2022-09-27T09:19:00.553Z,94699.68
2022-09-27T09:21:57.545Z,94698.73
2022-09-27T09:24:46.516Z,94693.80
2022-09-27T09:27:32.715Z,94680.08
2022-09-27T09:30:13.137Z,94676.56
2022-09-27T09:33:01.816Z,94675.52
2022-09-27T09:35:40.662Z,94674.16
2022-09-27T09:38:18.998Z,94667.86
2022-09-27T09:41:03.930Z,94664.11
2022-09-27T09:43:58.251Z,94664.83
2022-09-27T09:46:43.535Z,94655.25
2022-09-27T09:49:30.871Z,94655.19
2022-09-27T09:52:12.860Z,94657.96
2022-09-27T09:54:50.911Z,94654.35
2022-09-27T09:57:32.280Z,94648.20
2022-09-27T10:00:19.327Z,94642.61
2022-09-27T10:02:50.088Z,94639.50
2022-09-27T10:05:26.465Z,94636.67
2022-09-27T10:08:04.560Z,94628.75
2022-09-27T10:10:34.064Z,94624.45
2022-09-27T10:13:26.799Z,94623.08
2022-09-27T10:16:09.217Z,94623.25
2022-09-27T10:18:39.826Z,94613.52
2022-09-27T10:21:17.431Z,94610.87
2022-09-27T10:24:18.466Z,94612.88
2022-09-27T10:26:59.637Z,94606.30
2022-09-27T10:29:37.892Z,94602.70
2022-09-27T10:32:22.688Z,94595.11
2022-09-27T10:34:51.342Z,94594.52
2022-09-27T10:37:23.085Z,94595.17
2022-09-27T10:40:36.834Z,94600.38
2022-09-27T10:43:34.760Z,94602.58
2022-09-27T10:46:31.822Z,94607.44
2022-09-27T10:49:38.967Z,94608.02
2022-09-27T10:52:22.809Z,94608.33
2022-09-27T10:55:01.775Z,94602.99
2022-09-27T10:57:31.642Z,94600.09
2022-09-27T11:00:05.583Z,94596.08
2022-09-27T11:02:39.890Z,94594.58
2022-09-27T11:05:29.862Z,94599.28
2022-09-27T11:08:02.991Z,94602.54
2022-09-27T11:11:06.972Z,94601.59
2022-09-27T11:13:36.946Z,94598.41
2022-09-27T11:16:24.488Z,94596.22
2022-09-27T11:19:02.961Z,94591.67
2022-09-27T11:21:50.615Z,94587.02
2022-09-27T11:24:37.016Z,94587.52
2022-09-27T11:27:41.243Z,94590.73
2022-09-27T11:30:20.084Z,94588.65
2022-09-27T11:33:20.645Z,94584.98
2022-09-27T11:35:48.622Z,94579.52
2022-09-27T11:39:03.000Z,94579.47
2022-09-27T11:42:28.574Z,94585.56
2022-09-27T11:45:50.473Z,94581.31
2022-09-27T11:48:53.171Z,94580.61
2022-09-27T11:51:58.809Z,94572.75
2022-09-27T11:54:52.191Z,94573.81
2022-09-27T11:57:47.260Z,94577.83
2022-09-27T12:00:31.663Z,94573.19
2022-09-27T12:03:08.308Z,94567.39
2022-09-27T12:06:06.316Z,94568.55
2022-09-27T12:08:51.395Z,94570.86
2022-09-27T12:11:40.613Z,94570.64
2022-09-27T12:14:35.326Z,94562.52
2022-09-27T12:17:14.703Z,94553.47
2022-09-27T12:19:50.991Z,94551.20
2022-09-27T12:22:58.975Z,94552.82
2022-09-27T12:26:35.269Z,94560.71
2022-09-27T12:29:14.211Z,94564.45
2022-09-27T12:31:53.062Z,94559.39
2022-09-27T12:34:40.298Z,94557.11
2022-09-27T12:37:28.155Z,94552.11
2022-09-27T12:40:03.623Z,94549.02
2022-09-27T12:42:39.148Z,94548.02
2022-09-27T12:45:17.651Z,94547.08
2022-09-27T12:47:55.566Z,94542.94
2022-09-27T12:50:45.046Z,94539.50
2022-09-27T12:53:42.241Z,94541.35
2022-09-27T12:56:17.774Z,94535.21
2022-09-27T12:59:04.262Z,94527.66
2022-09-27T13:01:51.859Z,94521.83
2022-09-27T13:04:25.799Z,94507.44
2022-09-27T13:07:17.801Z,94499.11
2022-09-27T13:10:24.288Z,94499.09
2022-09-27T13:12:55.227Z,94491.88
2022-09-27T13:15:30.211Z,94488.59
2022-09-27T13:18:01.935Z,94479.78
2022-09-27T13:20:46.377Z,94479.84
2022-09-27T13:23:32.510Z,94482.96
2022-09-27T13:26:20.301Z,94491.39
2022-09-27T13:28:52.202Z,94498.70
2022-09-27T13:31:59.506Z,94498.57
2022-09-27T13:34:56.596Z,94487.85
2022-09-27T13:38:01.357Z,94477.02
2022-09-27T13:40:40.938Z,94469.98
2022-09-27T13:43:13.305Z,94469.08
2022-09-27T13:46:01.249Z,94463.48
2022-09-27T13:48:55.104Z,94462.42
2022-09-27T13:51:31.030Z,94459.98
2022-09-27T13:54:07.990Z,94453.71
2022-09-27T13:56:46.693Z,94456.52
2022-09-27T13:59:43.281Z,94448.26
2022-09-27T14:03:28.037Z,94441.00
2022-09-27T14:06:09.298Z,94437.96
2022-09-27T14:08:50.967Z,94438.65
2022-09-27T14:11:30.470Z,94432.64
2022-09-27T14:13:59.790Z,94426.98
2022-09-27T14:16:34.527Z,94425.05
2022-09-27T14:19:04.124Z,94428.52
2022-09-27T14:21:39.142Z,94428.75
2022-09-27T14:24:35.995Z,94430.05
2022-09-27T14:27:31.117Z,94432.79
2022-09-27T14:30:16.724Z,94433.39
2022-09-27T14:32:48.916Z,94433.33
2022-09-27T14:35:50.530Z,94439.02
2022-09-27T14:38:38.491Z,94446.12
2022-09-27T14:41:13.269Z,94448.84
2022-09-27T14:43:46.444Z,94452.05
2022-09-27T14:46:31.956Z,94450.22
2022-09-27T14:49:22.592Z,94448.80
2022-09-27T14:51:56.215Z,94445.56
2022-09-27T14:54:27.262Z,94443.78
2022-09-27T14:56:56.764Z,94444.55
2022-09-27T14:59:34.212Z,94441.50
2022-09-27T15:02:18.565Z,94437.90
2022-09-27T15:04:49.162Z,94434.60
2022-09-27T15:07:19.229Z,94436.64
2022-09-27T15:09:47.435Z,94435.77
2022-09-27T15:12:24.875Z,94437.03
2022-09-27T15:14:55.492Z,94438.02
2022-09-27T15:17:23.520Z,94437.77
2022-09-27T15:20:04.134Z,94438.00
2022-09-27T15:22:45.828Z,94440.11
2022-09-27T15:25:20.992Z,94436.88
2022-09-27T15:27:52.447Z,94432.36
2022-09-27T15:30:29.670Z,94431.52
2022-09-27T15:32:58.452Z,94429.66
2022-09-27T15:35:33.281Z,94426.05
2022-09-27T15:38:34.500Z,94426.98
2022-09-27T15:41:06.223Z,94426.35
2022-09-27T15:43:41.211Z,94428.20
2022-09-27T15:46:29.658Z,94428.74
2022-09-27T15:49:30.685Z,94419.04
2022-09-27T15:52:00.813Z,94428.28
2022-09-27T15:54:31.872Z,94431.53
2022-09-27T15:57:04.624Z,94431.13
2022-09-27T15:59:35.387Z,94437.86
2022-09-27T16:02:14.016Z,94437.41
2022-09-27T16:04:42.006Z,94436.57
2022-09-27T16:07:11.776Z,94434.98
2022-09-27T16:09:40.568Z,94430.36
2022-09-27T16:12:09.232Z,94434.29
2022-09-27T16:14:37.159Z,94433.56
2022-09-27T16:17:05.104Z,94437.13
2022-09-27T16:19:33.011Z,94434.58
2022-09-27T16:22:03.602Z,94439.14
2022-09-27T16:24:32.601Z,94440.42
2022-09-27T16:27:00.601Z,94444.46
2022-09-27T16:29:28.623Z,94445.30
2022-09-27T16:31:57.221Z,94437.95
2022-09-27T16:34:25.279Z,94447.36
2022-09-27T16:36:53.375Z,94447.93
2022-09-27T16:39:21.299Z,94439.52
2022-09-27T16:41:49.162Z,94439.52
2022-09-27T16:44:17.832Z,94437.98
2022-09-27T16:46:49.834Z,94442.36
2022-09-27T16:49:36.191Z,94439.67
2022-09-27T16:52:04.146Z,94439.38
2022-09-27T16:54:32.095Z,94437.03
2022-09-27T16:57:00.133Z,94433.55
2022-09-27T16:59:28.404Z,94431.61
2022-09-27T17:01:57.576Z,94435.54
2022-09-27T17:04:27.822Z,94431.55
2022-09-27T17:06:57.113Z,94431.05
2022-09-27T17:09:25.823Z,94432.16
2022-09-27T17:11:55.370Z,94430.41
2022-09-27T17:14:23.469Z,94430.97
2022-09-27T17:16:52.650Z,94432.41
2022-09-27T17:19:20.996Z,94437.89
2022-09-27T17:21:49.113Z,94440.88
2022-09-27T17:24:18.085Z,94442.69
2022-09-27T17:26:46.202Z,94439.81
2022-09-27T17:29:14.441Z,94437.31
2022-09-27T17:31:42.530Z,94436.08
2022-09-27T17:34:12.973Z,94438.10
2022-09-27T17:36:48.001Z,94435.34
2022-09-27T17:39:17.861Z,94440.69
2022-09-27T17:41:45.863Z,94438.73
2022-09-27T17:44:16.473Z,94436.27
2022-09-27T17:46:45.617Z,94439.54
2022-09-27T17:49:32.948Z,94443.06
2022-09-27T17:52:01.341Z,94441.53
2022-09-27T17:54:29.343Z,94441.11
2022-09-27T17:56:57.331Z,94438.67
2022-09-27T17:59:26.057Z,94434.59
2022-09-27T18:01:54.138Z,94435.40
2022-09-27T18:04:23.147Z,94437.52
2022-09-27T18:06:51.064Z,94436.15
2022-09-27T18:09:19.816Z,94434.08
2022-09-27T18:11:48.300Z,94433.12
2022-09-27T18:14:16.379Z,94434.56
2022-09-27T18:16:44.981Z,94436.48
2022-09-27T18:19:17.282Z,94435.48
2022-09-27T18:21:45.301Z,94436.13
2022-09-27T18:24:14.893Z,94444.27
2022-09-27T18:26:43.822Z,94444.19
2022-09-27T18:29:16.042Z,94445.58
2022-09-27T18:31:48.437Z,94443.55
2022-09-27T18:34:18.703Z,94439.61
2022-09-27T18:36:47.180Z,94436.66
2022-09-27T18:39:19.202Z,94437.19
2022-09-27T18:41:50.865Z,94436.52
2022-09-27T18:44:19.488Z,94436.44
2022-09-27T18:46:48.499Z,94433.69
2022-09-27T18:49:16.815Z,94432.46
2022-09-27T18:51:47.247Z,94428.65
2022-09-27T18:54:21.011Z,94429.53
2022-09-27T18:56:52.413Z,94429.42
2022-09-27T18:59:21.723Z,94424.08
2022-09-27T19:01:50.591Z,94417.92
2022-09-27T19:04:24.998Z,94413.42
2022-09-27T19:06:55.359Z,94409.75
2022-09-27T19:09:26.256Z,94403.82
2022-09-27T19:11:54.529Z,94402.36
2022-09-27T19:14:23.457Z,94399.39
2022-09-27T19:16:51.677Z,94395.51
2022-09-27T19:19:20.209Z,94399.60
2022-09-27T19:21:48.258Z,94403.86
2022-09-27T19:24:16.942Z,94410.11
2022-09-27T19:26:44.827Z,94419.23
2022-09-27T19:29:14.595Z,94427.73
2022-09-27T19:31:42.818Z,94431.09
2022-09-27T19:34:11.471Z,94437.73
2022-09-27T19:36:39.412Z,94448.04
2022-09-27T19:39:08.082Z,94451.65
2022-09-27T19:41:36.038Z,94458.02
2022-09-27T19:44:05.008Z,94465.17
2022-09-27T19:46:33.209Z,94467.52
2022-09-27T19:49:01.496Z,94473.48
2022-09-27T19:51:31.080Z,94474.86
2022-09-27T19:53:59.176Z,94477.82
2022-09-27T19:56:27.200Z,94474.98
2022-09-27T19:58:55.352Z,94474.81
2022-09-27T20:01:26.024Z,94476.63
2022-09-27T20:03:58.095Z,94477.23
2022-09-27T20:06:26.092Z,94473.11
2022-09-27T20:08:54.027Z,94472.40
2022-09-27T20:11:23.496Z,94470.05
2022-09-27T20:13:52.674Z,94467.17
2022-09-27T20:16:23.653Z,94468.32
2022-09-27T20:18:57.625Z,94479.95
2022-09-27T20:21:29.035Z,94485.90
2022-09-27T20:23:58.047Z,94490.09
2022-09-27T20:26:28.268Z,94489.23
2022-09-27T20:28:59.956Z,94491.27
2022-09-27T20:31:33.751Z,94493.18
2022-09-27T20:34:01.785Z,94494.02
2022-09-27T20:36:36.623Z,94491.70
2022-09-27T20:39:07.632Z,94495.39
2022-09-27T20:41:41.380Z,94500.36
2022-09-27T20:44:11.888Z,94499.91
2022-09-27T20:46:41.349Z,94501.02
2022-09-27T20:49:12.937Z,94505.40
2022-09-27T20:51:44.018Z,94509.42
2022-09-27T20:54:12.881Z,94508.41
2022-09-27T20:56:44.289Z,94513.05
2022-09-27T20:59:18.500Z,94514.91
2022-09-27T21:01:49.132Z,94518.30
2022-09-27T21:04:19.014Z,94519.49
2022-09-27T21:06:47.182Z,94515.17
2022-09-27T21:09:18.659Z,94509.23
2022-09-27T21:11:48.964Z,94506.14
2022-09-27T21:14:17.141Z,94508.44
2022-09-27T21:16:45.305Z,94508.03
2022-09-27T21:19:13.785Z,94510.05
2022-09-27T21:21:42.393Z,94511.04
2022-09-27T21:24:11.444Z,94506.73
2022-09-27T21:26:39.451Z,94503.41
2022-09-27T21:29:09.354Z,94504.27
2022-09-27T21:31:38.663Z,94505.68
2022-09-27T21:34:07.132Z,94507.70
2022-09-27T21:36:37.952Z,94508.81
2022-09-27T21:39:08.785Z,94512.15
2022-09-27T21:41:39.008Z,94509.38
2022-09-27T21:44:08.234Z,94513.88
2022-09-27T21:46:39.988Z,94514.89
2022-09-27T21:49:07.933Z,94515.42
2022-09-27T21:51:41.612Z,94510.35
2022-09-27T21:54:14.494Z,94504.05
2022-09-27T21:56:43.576Z,94502.84
2022-09-27T21:59:15.212Z,94502.38
2022-09-27T22:01:45.074Z,94505.06
2022-09-27T22:04:13.288Z,94506.52
2022-09-27T22:06:41.287Z,94504.42
2022-09-27T22:09:13.962Z,94499.20
2022-09-27T22:11:44.308Z,94496.89
2022-09-27T22:14:13.035Z,94498.62
2022-09-27T22:16:41.314Z,94501.02
2022-09-27T22:19:11.761Z,94503.99
2022-09-27T22:21:40.392Z,94505.46
2022-09-27T22:24:13.073Z,94506.19
2022-09-27T22:26:45.456Z,94509.35
2022-09-27T22:29:13.487Z,94510.64
2022-09-27T22:31:41.643Z,94513.11
2022-09-27T22:34:17.173Z,94514.13
2022-09-27T22:36:45.160Z,94517.23
2022-09-27T22:39:13.236Z,94520.23
2022-09-27T22:41:41.267Z,94521.20
2022-09-27T22:44:09.279Z,94516.36
2022-09-27T22:46:37.478Z,94513.48
2022-09-27T22:49:05.443Z,94515.38
2022-09-27T22:51:33.487Z,94518.29
2022-09-27T22:54:01.510Z,94516.27
2022-09-27T22:56:29.594Z,94516.63
2022-09-27T22:58:57.594Z,94518.75
2022-09-27T23:01:25.568Z,94519.52
2022-09-27T23:03:54.333Z,94525.73
2022-09-27T23:06:22.909Z,94528.51
2022-09-27T23:08:51.900Z,94526.06
2022-09-27T23:11:22.184Z,94521.06
2022-09-27T23:13:51.349Z,94517.40
2022-09-27T23:16:24.505Z,94520.77
2022-09-27T23:18:56.807Z,94518.84
2022-09-27T23:21:26.364Z,94515.64
2022-09-27T23:23:59.845Z,94515.83
2022-09-27T23:26:29.269Z,94520.11
2022-09-27T23:28:59.716Z,94520.73
2022-09-27T23:31:30.012Z,94528.95
2022-09-27T23:34:02.111Z,94536.23
2022-09-27T23:36:30.461Z,94535.72
2022-09-27T23:39:00.935Z,94534.77
2022-09-27T23:41:29.385Z,94534.94
2022-09-27T23:43:57.917Z,94537.58
2022-09-27T23:46:26.395Z,94543.41
2022-09-27T23:48:54.418Z,94547.27
2022-09-27T23:51:22.415Z,94543.11
2022-09-27T23:53:50.280Z,94535.10
2022-09-27T23:56:18.588Z,94533.91
2022-09-27T23:58:47.375Z,94528.23
